Flight Track Log - Related Links

Times and Time Zones

All times are in EDT time to prevent confusion due to time zone crossing. See the EJA566 flight status page for this flight to view local times or setup timezone preferences in your user account.

Time Position Orientation Groundspeed Altitude Reporting Facility
EDT Latitude Longitude Course Direction KTS MPH feet Rate Location/Type
Sun 11:58:54 AM 30.5808 -88.0239 286° West 196 226 3,900  Level Houston Center
Sun 11:59:56 AM 30.6044 -87.9767 60° Northeast 233 268 8,000 3,097 Climbing Houston Center
Sun 12:00:58 PM 30.6667 -88.0056 338° Northwest 247 284 10,300 2,323 Climbing Houston Center
Sun 12:02:00 PM 30.7403 -88.0478 334° Northwest 286 329 12,800 2,661 Climbing Houston Center
Sun 12:03:02 PM 30.8036 -88.1108 319° Northwest 298 343 15,800 2,927 Climbing Houston Center
Sun 12:04:00 PM 30.8153 -88.7171 286° West  Level Estimated
Sun 12:04:03 PM 30.8408 -88.1944 297° West 301 346 18,800  Level Houston Center
Sun 12:05:05 PM 30.8542 -88.3092 278° West 297 342 22,400 2,565 Climbing Houston Center
Sun 12:06:07 PM 30.8633 -88.3881 278° West 287 330 24,100 1,694 Climbing Houston Center
Sun 12:07:09 PM 30.8767 -88.5044 278° West 304 350 25,900 1,403 Climbing Houston Center
Sun 12:08:11 PM 30.8875 -88.6083 277° West 323 372 27,000 1,065 Climbing Houston Center
Sun 12:09:13 PM 30.8992 -88.7153 277° West 344 396 28,100 871 Climbing Houston Center
Sun 12:10:15 PM 30.9119 -88.8339 277° West 366 421 28,800 677 Climbing Houston Center
Sun 12:11:17 PM 30.9269 -88.9592 278° West 381 438 29,500 726 Climbing Houston Center
Sun 12:12:19 PM 30.9397 -89.0828 277° West 387 445 30,300 919 Climbing Houston Center
Sun 12:13:21 PM 30.9550 -89.2286 277° West 379 436 31,400 976 Climbing Houston Center
Sun 12:14:22 PM 30.9683 -89.3514 277° West 383 441 32,300 927 Climbing Houston Center
Sun 12:15:24 PM 30.9817 -89.4736 277° West 382 440 33,300 823 Climbing Houston Center
Sun 12:16:26 PM 30.9939 -89.5950 277° West 381 438 34,000 629 Climbing Houston Center
Sun 12:17:28 PM 31.0072 -89.7183 277° West 384 442 34,600 581 Climbing Houston Center
Sun 12:18:30 PM 31.0197 -89.8442 277° West 391 450 35,200 968 Climbing Houston Center
Sun 12:19:32 PM 31.0342 -89.9947 276° West 387 445 36,600 1,306 Climbing Houston Center
Sun 12:20:34 PM 31.0464 -90.1158 277° West 377 434 37,900 677 Climbing Houston Center
Sun 12:21:36 PM 31.0600 -90.2386 277° West 382 440 38,000 48 Climbing Houston Center
Sun 12:22:38 PM 31.0708 -90.3650 276° West 391 450 38,000  Level Houston Center
Sun 12:23:40 PM 31.0828 -90.4900 276° West 389 448 38,000  Level Houston Center
Sun 12:24:42 PM 31.0972 -90.6381 277° West 383 441 38,000  Level Houston Center
Sun 12:25:44 PM 31.1092 -90.7625 276° West 386 444 38,000  Level Houston Center
Sun 12:26:46 PM 31.1206 -90.8872 276° West 386 444 38,000  Level Houston Center
Sun 12:27:48 PM 31.1319 -91.0106 276° West 385 443 38,000  Level Houston Center
Sun 12:28:50 PM 31.1525 -91.1342 281° West 388 447 38,000  Level Houston Center
Sun 12:29:52 PM 31.1825 -91.2544 286° West 388 447 38,000  Level Houston Center
Sun 12:30:54 PM 31.2158 -91.4006 285° West 388 447 38,000  Level Houston Center
Sun 12:31:56 PM 31.2419 -91.5169 285° West 388 447 38,000  Level Houston Center
Sun 12:32:58 PM 31.2706 -91.6375 286° West 386 444 38,000  Level Houston Center
Sun 12:34:00 PM 31.2978 -91.7589 285° West 386 444 38,000  Level Houston Center
Sun 12:35:02 PM 31.3308 -91.9067 285° West 391 450 38,000  Level Houston Center
Sun 12:36:04 PM 31.3569 -92.0283 284° West 388 447 38,000  Level Houston Center
Sun 12:37:06 PM 31.3800 -92.1472 283° West 384 442 38,000  Level Houston Center
Sun 12:38:08 PM 31.4092 -92.2692 286° West 387 445 38,000  Level Houston Center
Sun 12:39:10 PM 31.4367 -92.3906 285° West 387 445 38,000  Level Houston Center
Sun 12:40:12 PM 31.4667 -92.5097 286° West 383 441 38,000  Level Houston Center
Sun 12:41:14 PM 31.4975 -92.6514 284° West 377 434 38,000  Level Houston Center
Sun 12:42:16 PM 31.5222 -92.7661 284° West 368 423 38,000  Level Houston Center
Sun 12:43:18 PM 31.5475 -92.8806 285° West 365 420 38,000  Level Houston Center
Sun 12:44:19 PM 31.5719 -92.9936 284° West 362 417 38,000  Level Houston Center
Sun 12:45:21 PM 31.5967 -93.1086 284° West 366 421 38,000  Level Houston Center
Sun 12:46:23 PM 31.6222 -93.2247 285° West 369 425 38,000  Level Houston Center
Sun 12:47:25 PM 31.6517 -93.3600 284° West 372 428 38,000  Level Houston Center
Sun 12:48:27 PM 31.6764 -93.4772 284° West 372 428 38,000  Level Houston Center
Sun 12:49:29 PM 31.7125 -93.6028 289° West 368 423 38,000  Level Houston Center
Sun 12:50:30 PM 31.7486 -93.7144 291° West 368 423 38,000  Level Houston Center
Sun 12:51:32 PM 31.7850 -93.8269 291° West 369 425 38,000  Level Houston Center
Sun 12:52:34 PM 31.8253 -93.9522 291° West 374 430 38,000  Level Houston Center
Sun 12:53:36 PM 31.8625 -94.0672 291° West 377 434 38,000  Level Houston Center
Sun 12:54:37 PM 31.8994 -94.1847 290° West 381 438 38,000  Level Houston Center
Sun 12:55:39 PM 31.9411 -94.3139 291° West 384 442 38,000 -242 Level Houston Center
Sun 12:56:41 PM 31.9772 -94.4281 290° West 376 433 37,500 -919 Descending Houston Center
Sun 12:57:43 PM 32.0133 -94.5433 290° West 376 433 36,100 -1,412 Descending Houston Center
Sun 12:58:57 PM 32.0564 -94.6803 290° West 381 438 34,300 -1,478 Descending Fort Worth Center
Sun 12:59:57 PM 32.0900 -94.7919 290° West 376 433 32,800 -1,500 Descending Fort Worth Center
Sun 01:00:57 PM 32.1258 -94.9064 290° West 371 427 31,300 -1,500 Descending Fort Worth Center
Sun 01:01:57 PM 32.1636 -95.0231 291° West 371 427 29,800 -1,500 Descending Fort Worth Center
Sun 01:02:57 PM 32.2014 -95.1497 289° West 389 448 28,300 -1,500 Descending Fort Worth Center
Sun 01:03:57 PM 32.2369 -95.2717 289° West 395 455 26,800 -1,500 Descending Fort Worth Center
Sun 01:04:57 PM 32.2764 -95.3936 291° West 395 455 25,300 -1,350 Descending Fort Worth Center
Sun 01:05:57 PM 32.3158 -95.5131 291° West 395 455 24,100 -650 Descending Fort Worth Center
Sun 01:06:57 PM 32.3492 -95.6356 288° West 395 455 24,000 -50 Descending Fort Worth Center
Sun 01:07:57 PM 32.3883 -95.7528 292° West 395 455 24,000 -300 Level Fort Worth Center
Sun 01:08:57 PM 32.4231 -95.8728 289° West 389 448 23,400 -1,800 Descending Fort Worth Center
Sun 01:09:57 PM 32.4622 -96.0000 290° West 377 434 20,400 -3,450 Descending Fort Worth Center
Sun 01:10:57 PM 32.4969 -96.1103 290° West 369 425 16,500 -3,750 Descending Fort Worth Center
Sun 01:11:57 PM 32.5292 -96.2183 290° West 362 417 12,900 -3,300 Descending Fort Worth Center
Sun 01:12:57 PM 32.5322 -96.3217 272° West 339 390 9,900 -2,750 Descending Fort Worth Center
Sun 01:13:57 PM 32.5308 -96.4106 269° West 292 336 7,400 -2,350 Descending Fort Worth Center
Sun 01:14:57 PM 32.5481 -96.4867 285° West 254 292 5,200 -1,750 Descending Fort Worth Center
Sun 01:15:57 PM 32.5883 -96.5481 308° West 234 269 3,900 -1,100 Descending Fort Worth Center
Sun 01:16:57 PM 32.6303 -96.5944 317° Northwest 234 269 3,000 -509 Descending Fort Worth Center
Sun 01:17:43 PM 32.6667 -96.6333 318° Northwest 206 237 3,000  Level Dallas / Fort Worth TRACON
Sun 01:18:43 PM 32.7000 -96.6833 308° West 197 227 3,000  Level Dallas / Fort Worth TRACON
Sun 01:19:37 PM 32.7333 -96.7167 320° Northwest 195 224 3,000 -368 Level Dallas / Fort Worth TRACON
Sun 01:20:37 PM 32.7833 -96.7667 320° Northwest 184 212 2,300 -762 Descending Dallas / Fort Worth TRACON
Sun 01:21:43 PM 32.8167 -96.8000 320° Northwest 119 137 1,400 -714 Descending Dallas / Fort Worth TRACON
Sun 01:22:43 PM 32.8333 -96.8333 301° West 110 127 800 -600 Descending Dallas / Fort Worth TRACON
Sun 01:26:00 PM 32.8333 -96.8500 301° West  Level FlightAware Approximate

Login

Don't have an account? Register now (free) for customized features, flight alerts, and more!